Time;durP1;ratioP1;P1;durP2;ratioP2;P2;SDS_P1;SDS_P2;PMS_P1;PMS_P2;Temp;Humidity;BMP_temperature;BMP_pressure;BME280_temperature;BME280_humidity;BME280_pressure;Samples;Min_cycle;Max_cycle;Signal;HPM_P1;HPM_P2
2022/07/01 00:02:02;;;;;;;3.60;2.58;;;16.50;99.60;;;;;;5047726;28;20212;-34
2022/07/01 00:04:30;;;;;;;3.65;2.78;;;16.50;99.60;;;;;;5044681;28;21062;-35
2022/07/01 00:06:57;;;;;;;5.00;2.85;;;16.50;99.70;;;;;;5047265;28;20228;-34
2022/07/01 00:09:24;;;;;;;4.78;2.83;;;16.40;99.80;;;;;;5041791;28;20295;-34
2022/07/01 00:11:52;;;;;;;3.70;2.70;;;16.40;99.90;;;;;;5039134;28;20638;-35
2022/07/01 00:14:19;;;;;;;3.10;2.70;;;16.40;99.90;;;;;;5046168;28;20220;-34
2022/07/01 00:16:46;;;;;;;3.10;2.40;;;16.40;99.90;;;;;;5039370;28;20193;-34
2022/07/01 00:19:14;;;;;;;3.38;2.40;;;16.40;99.80;;;;;;5046863;28;21197;-35
2022/07/01 00:21:41;;;;;;;4.47;2.63;;;16.40;99.70;;;;;;5046408;28;20232;-35
2022/07/01 00:24:09;;;;;;;6.77;2.83;;;16.40;99.80;;;;;;5047408;28;20609;-34
2022/07/01 00:26:38;;;;;;;3.63;2.30;;;16.40;99.80;;;;;;5045767;28;20717;-34
2022/07/01 00:29:10;;;;;;;3.03;2.23;;;16.30;99.80;;;;;;5046783;28;20204;-34
2022/07/01 00:31:38;;;;;;;3.53;2.50;;;16.30;99.80;;;;;;5046629;28;20574;-35
2022/07/01 00:34:08;;;;;;;4.13;2.60;;;16.30;99.80;;;;;;5046272;28;20223;-34
2022/07/01 00:36:35;;;;;;;3.33;2.38;;;16.30;99.90;;;;;;5038566;28;20644;-35
2022/07/01 00:39:02;;;;;;;2.80;2.50;;;16.30;99.80;;;;;;5040995;28;20537;-35
2022/07/01 00:41:30;;;;;;;3.70;2.50;;;16.30;99.80;;;;;;5043060;28;20710;-34
2022/07/01 00:43:57;;;;;;;3.80;2.30;;;16.30;99.80;;;;;;5046905;28;20215;-35
2022/07/01 00:46:27;;;;;;;5.07;2.70;;;16.20;99.90;;;;;;5042842;28;20205;-34
2022/07/01 00:49:00;;;;;;;5.63;2.87;;;16.20;99.80;;;;;;5035871;28;20744;-34
2022/07/01 00:51:30;;;;;;;2.60;2.40;;;16.20;99.90;;;;;;5031791;28;20231;-34
2022/07/01 00:54:01;;;;;;;3.03;2.20;;;16.20;99.90;;;;;;5047254;28;20250;-34
2022/07/01 00:56:31;;;;;;;3.87;2.30;;;16.20;99.90;;;;;;5037225;28;20228;-34
2022/07/01 00:58:58;;;;;;;3.93;2.20;;;16.20;99.90;;;;;;5045406;28;20714;-34
2022/07/01 01:01:30;;;;;;;2.85;2.53;;;16.20;99.90;;;;;;5042822;28;20224;-34
2022/07/01 01:04:02;;;;;;;3.47;2.60;;;16.20;99.90;;;;;;5043562;28;20224;-34
2022/07/01 01:06:31;;;;;;;3.95;2.17;;;16.20;99.90;;;;;;5040556;28;20381;-35
2022/07/01 01:08:59;;;;;;;4.70;2.37;;;16.20;99.90;;;;;;5035696;28;20204;-34
2022/07/01 01:11:26;;;;;;;3.70;2.57;;;16.20;99.90;;;;;;5052146;28;20757;-34
2022/07/01 01:13:53;;;;;;;3.00;2.17;;;16.20;99.90;;;;;;5042891;28;20208;-35
2022/07/01 01:16:23;;;;;;;6.95;2.60;;;16.20;99.90;;;;;;5039093;28;20204;-35
2022/07/01 01:18:52;;;;;;;3.30;2.43;;;16.20;99.90;;;;;;5057390;28;20204;-34
2022/07/01 01:21:22;;;;;;;5.70;2.47;;;16.20;99.90;;;;;;5044643;28;20220;-34
2022/07/01 01:23:57;;;;;;;2.97;2.67;;;16.20;99.90;;;;;;5045403;28;20307;-34
2022/07/01 01:26:27;;;;;;;5.93;2.83;;;16.20;99.90;;;;;;5045913;28;20200;-34
2022/07/01 01:28:54;;;;;;;3.83;2.70;;;16.20;99.90;;;;;;5039493;28;20228;-34
2022/07/01 01:31:29;;;;;;;3.73;2.40;;;16.20;99.90;;;;;;5045700;28;21121;-35
2022/07/01 01:33:57;;;;;;;5.10;2.60;;;16.20;99.90;;;;;;5041948;28;20285;-35
2022/07/01 01:36:24;;;;;;;3.60;2.63;;;16.20;99.90;;;;;;5033618;28;20204;-34
2022/07/01 01:38:57;;;;;;;3.17;2.80;;;16.10;99.90;;;;;;5040301;28;20231;-35
2022/07/01 01:41:27;;;;;;;4.30;2.87;;;16.20;99.90;;;;;;5044335;28;20582;-34
2022/07/01 01:43:54;;;;;;;4.60;2.90;;;16.20;99.90;;;;;;5032801;28;20718;-34
2022/07/01 01:46:21;;;;;;;4.57;2.87;;;16.20;99.90;;;;;;5041219;28;20266;-34
2022/07/01 01:48:49;;;;;;;4.70;3.13;;;16.20;99.90;;;;;;5040336;28;20216;-34
2022/07/01 01:51:18;;;;;;;3.20;2.53;;;16.10;99.90;;;;;;5045188;28;20259;-35
2022/07/01 01:53:46;;;;;;;4.37;3.00;;;16.20;99.90;;;;;;5058588;28;20616;-35
2022/07/01 01:56:13;;;;;;;3.00;2.70;;;16.10;99.90;;;;;;5042006;28;20220;-35
2022/07/01 01:58:45;;;;;;;6.43;2.80;;;16.20;99.90;;;;;;5044929;28;20247;-35
2022/07/01 02:01:12;;;;;;;5.50;3.10;;;16.20;99.90;;;;;;5043256;28;20243;-35
2022/07/01 02:03:41;;;;;;;3.50;2.67;;;16.10;99.90;;;;;;5037714;28;20208;-35
2022/07/01 02:06:10;;;;;;;4.47;2.83;;;16.10;99.90;;;;;;5045218;28;20302;-34
2022/07/01 02:08:40;;;;;;;6.67;3.33;;;16.10;99.90;;;;;;5041615;28;20201;-35
2022/07/01 02:11:10;;;;;;;5.30;3.30;;;16.10;99.90;;;;;;5046068;28;20200;-35
2022/07/01 02:13:38;;;;;;;7.23;2.90;;;16.10;99.90;;;;;;5043862;28;20235;-34
2022/07/01 02:16:07;;;;;;;6.03;3.13;;;16.10;99.90;;;;;;5036903;28;20219;-34
2022/07/01 02:18:35;;;;;;;4.97;3.10;;;16.10;99.90;;;;;;5042615;28;20200;-35
2022/07/01 02:21:02;;;;;;;5.60;3.33;;;16.10;99.90;;;;;;5044717;28;20650;-34
2022/07/01 02:23:36;;;;;;;3.15;2.72;;;16.10;99.90;;;;;;5037455;28;20300;-35
2022/07/01 02:26:06;;;;;;;5.80;3.33;;;16.10;99.90;;;;;;5041905;28;20200;-35
2022/07/01 02:28:33;;;;;;;6.17;3.30;;;16.10;99.90;;;;;;5045917;28;20212;-34
2022/07/01 02:31:02;;;;;;;4.67;3.13;;;16.00;99.90;;;;;;5045495;28;20586;-34
2022/07/01 02:33:30;;;;;;;5.33;3.37;;;16.00;99.90;;;;;;5044391;28;20674;-35
2022/07/01 02:36:00;;;;;;;6.18;3.60;;;16.00;99.90;;;;;;5042119;28;20705;-35
2022/07/01 02:38:29;;;;;;;4.20;3.20;;;16.00;99.90;;;;;;5045175;28;20252;-35
2022/07/01 02:40:56;;;;;;;5.35;3.45;;;16.00;99.90;;;;;;5043798;28;20232;-35
2022/07/01 02:43:24;;;;;;;4.60;4.03;;;16.00;99.90;;;;;;5046161;28;20208;-34
2022/07/01 02:45:51;;;;;;;5.35;3.60;;;15.90;99.90;;;;;;5042615;28;20220;-35
2022/07/01 02:48:18;;;;;;;6.22;3.47;;;15.90;99.90;;;;;;5041996;28;20204;-34
2022/07/01 02:50:48;;;;;;;6.10;3.57;;;15.90;99.90;;;;;;5044655;28;20265;-35
2022/07/01 02:53:17;;;;;;;6.90;3.67;;;15.90;99.90;;;;;;5044030;28;20199;-35
2022/07/01 02:55:45;;;;;;;7.60;3.60;;;15.90;99.90;;;;;;5043768;28;20254;-35
2022/07/01 02:58:12;;;;;;;4.17;3.67;;;15.90;99.90;;;;;;5041796;28;20212;-35
2022/07/01 03:00:39;;;;;;;4.33;3.67;;;15.90;99.90;;;;;;5044757;28;20214;-35
2022/07/01 03:03:06;;;;;;;5.17;3.67;;;15.90;99.90;;;;;;5033307;28;20196;-35
2022/07/01 03:05:34;;;;;;;4.35;3.95;;;15.90;99.90;;;;;;5044840;28;20223;-34
2022/07/01 03:08:04;;;;;;;4.30;3.57;;;15.90;99.90;;;;;;5044340;28;20738;-34
2022/07/01 03:10:33;;;;;;;6.00;3.30;;;15.90;99.90;;;;;;5054754;28;20255;-33
2022/07/01 03:13:01;;;;;;;5.30;3.63;;;15.90;99.90;;;;;;5044954;28;20239;-33
2022/07/01 03:15:29;;;;;;;6.50;4.10;;;15.90;99.90;;;;;;5036843;28;20235;-34
2022/07/01 03:17:56;;;;;;;7.93;4.00;;;16.00;99.90;;;;;;5038729;28;20204;-33
2022/07/01 03:20:26;;;;;;;5.65;3.90;;;16.00;99.90;;;;;;5038110;28;20731;-33
2022/07/01 03:22:55;;;;;;;5.50;4.10;;;16.00;99.90;;;;;;5048563;28;20270;-33
2022/07/01 03:25:23;;;;;;;6.00;3.97;;;16.00;99.90;;;;;;5044295;28;20208;-34
2022/07/01 03:27:50;;;;;;;5.63;3.80;;;16.00;99.90;;;;;;5045649;28;20745;-33
2022/07/01 03:30:18;;;;;;;8.50;4.82;;;16.00;99.90;;;;;;5047751;28;20246;-32
2022/07/01 03:32:45;;;;;;;9.45;4.40;;;16.10;99.90;;;;;;5046805;28;20224;-33
2022/07/01 03:38:05;;;;;;;6.00;3.97;;;16.10;99.90;;;;;;5042072;28;20778;-32
2022/07/01 03:40:35;;;;;;;7.17;4.30;;;16.10;99.90;;;;;;5033465;28;20625;-33
2022/07/01 03:43:03;;;;;;;6.95;4.18;;;16.10;99.90;;;;;;5044633;28;20216;-32
2022/07/01 03:45:33;;;;;;;5.78;4.20;;;16.10;99.90;;;;;;5048307;28;20201;-32
2022/07/01 03:48:00;;;;;;;7.95;4.22;;;16.10;99.90;;;;;;5039744;28;20224;-33
2022/07/01 03:50:27;;;;;;;6.70;4.28;;;16.10;99.90;;;;;;5049685;28;20212;-33
2022/07/01 03:55:41;;;;;;;7.95;3.90;;;16.20;99.90;;;;;;5037997;28;20782;-32
2022/07/01 03:58:08;;;;;;;5.03;3.73;;;16.20;99.90;;;;;;5045891;28;20656;-32
2022/07/01 04:00:38;;;;;;;4.40;3.67;;;16.20;99.90;;;;;;5038866;28;20213;-32
2022/07/01 04:03:06;;;;;;;5.60;4.37;;;16.20;99.90;;;;;;5056918;28;20299;-32
2022/07/01 04:05:40;;;;;;;5.43;4.03;;;16.20;99.90;;;;;;5055714;28;20203;-33
2022/07/01 04:08:08;;;;;;;5.13;3.53;;;16.20;99.90;;;;;;5047519;28;20205;-32
2022/07/01 04:10:38;;;;;;;9.20;4.60;;;16.20;99.90;;;;;;5029729;28;20192;-32
2022/07/01 04:13:06;;;;;;;7.88;4.43;;;16.20;99.90;;;;;;5048244;28;20960;-33
2022/07/01 04:15:55;;;;;;;8.83;4.33;;;16.20;99.90;;;;;;5057634;28;20569;-34
2022/07/01 04:18:23;;;;;;;6.32;4.18;;;16.20;99.90;;;;;;5033150;28;20220;-33
2022/07/01 04:23:36;;;;;;;6.28;4.75;;;16.30;99.90;;;;;;5041153;28;20199;-33
2022/07/01 04:26:06;;;;;;;6.45;4.22;;;16.30;99.90;;;;;;5043641;28;20211;-33
2022/07/01 04:28:54;;;;;;;6.93;3.93;;;16.30;99.90;;;;;;5046476;28;20201;-33
2022/07/01 04:31:22;;;;;;;5.37;4.00;;;16.30;99.90;;;;;;5046466;28;20211;-33
2022/07/01 04:33:49;;;;;;;9.77;5.07;;;16.30;99.90;;;;;;5048032;28;20212;-33
2022/07/01 04:36:17;;;;;;;7.97;4.57;;;16.40;99.90;;;;;;5037977;28;20221;-33
2022/07/01 04:38:45;;;;;;;7.07;4.75;;;16.40;99.90;;;;;;5033762;28;20428;-34
2022/07/01 04:43:59;;;;;;;6.17;4.70;;;16.40;99.90;;;;;;5048171;28;20208;-33
2022/07/01 04:46:26;;;;;;;7.50;4.53;;;16.40;99.90;;;;;;5047248;28;20258;-33
2022/07/01 04:48:59;;;;;;;6.30;4.30;;;16.40;99.90;;;;;;5046979;28;20615;-32
2022/07/01 04:51:28;;;;;;;7.78;4.30;;;16.30;99.90;;;;;;5046207;28;20229;-32
2022/07/01 04:54:01;;;;;;;6.50;4.30;;;16.30;99.90;;;;;;5047336;28;20235;-32
2022/07/01 04:56:28;;;;;;;7.05;4.28;;;16.30;99.90;;;;;;5045391;28;20301;-33
2022/07/01 04:59:01;;;;;;;8.48;4.63;;;16.30;99.90;;;;;;5037397;28;20620;-32
2022/07/01 05:01:31;;;;;;;7.07;4.13;;;16.30;99.90;;;;;;5041486;28;20228;-33
2022/07/01 05:03:59;;;;;;;7.00;4.77;;;16.30;99.90;;;;;;5027715;28;20239;-33
2022/07/01 05:06:29;;;;;;;9.67;5.10;;;16.30;99.90;;;;;;5043880;28;20206;-32
2022/07/01 05:08:56;;;;;;;6.63;4.40;;;16.30;99.90;;;;;;5041558;28;20200;-32
2022/07/01 05:11:23;;;;;;;10.18;4.80;;;16.40;99.90;;;;;;5043171;28;20994;-33
2022/07/01 05:13:53;;;;;;;6.65;3.97;;;16.40;99.90;;;;;;5046580;28;20254;-32
2022/07/01 05:16:22;;;;;;;9.13;4.93;;;16.50;99.90;;;;;;5035412;28;20740;-34
2022/07/01 05:21:55;;;;;;;6.30;3.65;;;16.60;99.90;;;;;;5042782;28;20240;-32
2022/07/01 05:24:24;;;;;;;7.97;4.43;;;16.70;99.90;;;;;;5046028;28;20680;-32
2022/07/01 05:26:57;;;;;;;11.05;4.60;;;16.70;99.90;;;;;;5041432;28;20208;-33
2022/07/01 05:29:24;;;;;;;10.13;4.63;;;16.80;99.90;;;;;;5042225;28;20708;-33
2022/07/01 05:31:51;;;;;;;13.50;4.80;;;16.80;99.90;;;;;;5043934;28;20220;-33
2022/07/01 05:34:19;;;;;;;13.47;6.27;;;16.90;99.90;;;;;;5046999;28;20315;-33
2022/07/01 05:36:49;;;;;;;12.17;5.17;;;16.90;99.90;;;;;;5045533;28;20246;-32
2022/07/01 05:39:19;;;;;;;10.00;4.67;;;16.90;99.90;;;;;;5045565;28;20220;-32
2022/07/01 05:41:46;;;;;;;8.95;4.50;;;16.90;99.90;;;;;;5043026;28;20675;-32
2022/07/01 05:44:18;;;;;;;8.37;4.20;;;17.00;99.90;;;;;;5043845;28;20769;-33
2022/07/01 05:46:45;;;;;;;11.07;4.22;;;16.90;99.90;;;;;;5044244;28;20216;-33
2022/07/01 05:49:12;;;;;;;7.13;4.17;;;16.90;99.90;;;;;;5041808;28;20204;-32
2022/07/01 05:51:45;;;;;;;9.13;4.57;;;16.90;99.90;;;;;;5043861;28;20640;-33
2022/07/01 05:54:12;;;;;;;8.88;3.97;;;16.90;99.90;;;;;;5040891;28;20200;-33
2022/07/01 05:56:39;;;;;;;6.33;3.80;;;16.90;99.90;;;;;;5033353;28;20215;-33
2022/07/01 05:59:09;;;;;;;12.00;4.47;;;16.90;99.90;;;;;;5039176;28;20851;-33
2022/07/01 06:01:43;;;;;;;11.00;4.20;;;16.90;99.90;;;;;;5052134;28;20335;-33
2022/07/01 06:04:11;;;;;;;8.52;3.92;;;16.90;99.90;;;;;;5057518;28;20593;-32
2022/07/01 06:06:43;;;;;;;9.55;3.97;;;16.90;99.90;;;;;;5057948;28;20596;-33
2022/07/01 06:09:13;;;;;;;9.50;3.97;;;17.00;99.90;;;;;;5040662;28;20241;-32
2022/07/01 06:11:40;;;;;;;9.00;3.97;;;16.90;99.90;;;;;;5045427;28;20338;-32
2022/07/01 06:14:07;;;;;;;8.30;4.30;;;16.90;99.90;;;;;;5044034;28;20255;-33
2022/07/01 06:16:35;;;;;;;7.87;3.77;;;17.00;99.90;;;;;;5044407;28;20208;-32
2022/07/01 06:19:04;;;;;;;8.63;3.58;;;17.00;99.90;;;;;;5044055;28;20651;-33
2022/07/01 06:21:31;;;;;;;6.23;3.70;;;17.00;99.90;;;;;;5045143;28;20208;-33
2022/07/01 06:23:58;;;;;;;8.70;4.00;;;17.00;99.90;;;;;;5041996;28;20216;-32
2022/07/01 06:26:28;;;;;;;9.57;4.13;;;17.10;99.90;;;;;;5042162;28;20285;-32
2022/07/01 06:28:58;;;;;;;5.93;3.90;;;17.10;99.90;;;;;;5043793;28;20350;-32
2022/07/01 06:31:25;;;;;;;9.60;3.93;;;17.10;99.90;;;;;;5044079;28;20291;-33
2022/07/01 06:33:52;;;;;;;7.55;3.72;;;17.20;99.90;;;;;;5045949;28;20265;-33
2022/07/01 06:36:22;;;;;;;8.80;4.00;;;17.20;99.90;;;;;;5045462;28;20204;-32
2022/07/01 06:38:49;;;;;;;6.27;2.97;;;17.20;99.90;;;;;;5045889;28;20215;-32
2022/07/01 06:41:28;;;;;;;5.43;3.23;;;17.20;99.90;;;;;;5052186;28;20212;-32
2022/07/01 06:43:58;;;;;;;6.53;3.03;;;17.20;99.90;;;;;;5039099;28;20201;-33
2022/07/01 06:46:31;;;;;;;8.30;3.37;;;17.30;99.90;;;;;;5045231;28;20208;-32
2022/07/01 06:48:59;;;;;;;7.57;3.42;;;17.30;99.90;;;;;;5037992;28;20220;-33
2022/07/01 06:51:27;;;;;;;5.85;2.72;;;17.30;99.90;;;;;;5045643;28;20206;-33
2022/07/01 06:53:57;;;;;;;7.13;2.90;;;17.30;99.90;;;;;;5043667;28;20196;-32
2022/07/01 06:56:24;;;;;;;7.00;2.85;;;17.30;99.90;;;;;;5050327;28;20605;-32
2022/07/01 06:58:52;;;;;;;7.32;2.90;;;17.30;99.90;;;;;;5030327;28;20752;-32
2022/07/01 07:01:22;;;;;;;6.10;3.00;;;17.40;99.90;;;;;;5079180;28;20203;-32
2022/07/01 07:03:52;;;;;;;8.35;3.00;;;17.40;99.90;;;;;;5050404;28;20228;-33
2022/07/01 07:06:19;;;;;;;5.93;2.80;;;17.40;99.90;;;;;;5047704;28;20196;-32
2022/07/01 07:08:49;;;;;;;8.43;2.50;;;17.40;99.90;;;;;;5048286;28;20683;-32
2022/07/01 07:11:19;;;;;;;7.10;2.63;;;17.50;99.90;;;;;;5048039;28;20287;-32
2022/07/01 07:13:49;;;;;;;6.23;2.50;;;17.50;99.90;;;;;;5048803;28;20299;-32
2022/07/01 07:16:20;;;;;;;5.77;2.53;;;17.50;99.90;;;;;;5050080;28;20200;-32
2022/07/01 07:18:53;;;;;;;5.77;2.40;;;17.60;99.90;;;;;;5049525;28;20303;-32
2022/07/01 07:21:22;;;;;;;5.60;2.13;;;17.60;99.90;;;;;;5068806;28;20571;-32
2022/07/01 07:23:50;;;;;;;5.78;2.35;;;17.70;99.90;;;;;;5052974;28;20317;-32
2022/07/01 07:26:21;;;;;;;3.63;1.88;;;17.70;99.90;;;;;;5048933;28;20690;-32
2022/07/01 07:28:53;;;;;;;3.58;1.77;;;17.70;99.90;;;;;;5047905;28;20200;-32
2022/07/01 07:31:23;;;;;;;5.05;2.03;;;17.80;99.90;;;;;;5052179;28;20214;-32
2022/07/01 07:33:51;;;;;;;4.13;1.30;;;17.80;99.90;;;;;;5048591;28;20262;-32
2022/07/01 07:36:20;;;;;;;7.53;1.88;;;17.90;99.90;;;;;;5048806;28;20201;-32
2022/07/01 07:38:48;;;;;;;5.07;1.90;;;17.90;99.90;;;;;;5039080;28;20714;-32
2022/07/01 07:41:15;;;;;;;5.55;1.50;;;17.90;99.90;;;;;;5044765;28;20313;-32
2022/07/01 07:43:43;;;;;;;8.17;2.00;;;17.90;99.90;;;;;;5049423;28;20301;-32
2022/07/01 07:46:11;;;;;;;9.48;2.28;;;17.90;99.90;;;;;;5047240;28;20208;-32
2022/07/01 07:48:43;;;;;;;6.47;1.42;;;17.90;99.90;;;;;;5046891;28;20212;-32
2022/07/01 07:51:16;;;;;;;2.70;1.38;;;18.00;99.90;;;;;;5045939;28;20566;-32
2022/07/01 07:53:53;;;;;;;5.70;1.27;;;18.00;99.90;;;;;;5043218;28;20680;-32
2022/07/01 07:56:23;;;;;;;4.85;1.67;;;18.00;99.90;;;;;;5047276;28;20200;-32
2022/07/01 07:58:53;;;;;;;6.22;1.55;;;18.10;99.90;;;;;;5047632;28;20204;-32
2022/07/01 08:01:20;;;;;;;2.83;1.10;;;18.10;99.90;;;;;;5046649;28;20228;-34
2022/07/01 08:03:50;;;;;;;3.15;1.30;;;18.10;99.90;;;;;;5048910;28;20290;-34
2022/07/01 08:06:18;;;;;;;4.97;1.33;;;18.10;99.90;;;;;;5048451;28;20675;-34
2022/07/01 08:08:48;;;;;;;4.25;1.30;;;18.10;99.90;;;;;;5045071;28;20200;-34
2022/07/01 08:11:19;;;;;;;2.47;1.10;;;18.10;99.90;;;;;;5047794;28;20820;-34
2022/07/01 08:13:47;;;;;;;1.98;0.95;;;18.20;99.90;;;;;;5047921;28;20204;-34
2022/07/01 08:16:16;;;;;;;2.65;1.30;;;18.20;99.90;;;;;;5053061;28;20660;-34
2022/07/01 08:18:44;;;;;;;4.65;1.58;;;18.20;99.90;;;;;;5048310;28;20599;-34
2022/07/01 08:21:11;;;;;;;4.28;1.08;;;18.20;99.90;;;;;;5063351;28;20226;-35
2022/07/01 08:23:41;;;;;;;2.53;1.00;;;18.30;99.90;;;;;;5057652;28;20595;-35
2022/07/01 08:26:10;;;;;;;5.97;1.17;;;18.30;99.90;;;;;;5069159;28;20217;-34
2022/07/01 08:28:37;;;;;;;3.80;1.23;;;18.40;99.90;;;;;;5051952;28;20630;-34
2022/07/01 08:31:04;;;;;;;3.63;1.10;;;18.40;99.90;;;;;;5048569;28;20191;-34
2022/07/01 08:33:32;;;;;;;4.38;0.90;;;18.40;99.90;;;;;;5059797;28;20271;-34
2022/07/01 08:36:02;;;;;;;4.75;1.10;;;18.50;99.90;;;;;;5054371;28;20210;-33
2022/07/01 08:38:30;;;;;;;5.65;1.30;;;18.50;99.90;;;;;;5053328;28;20317;-33
2022/07/01 08:40:58;;;;;;;8.00;1.98;;;18.60;99.90;;;;;;5046268;28;20255;-32
2022/07/01 08:43:25;;;;;;;9.55;1.52;;;18.60;99.90;;;;;;5047237;28;20301;-32
2022/07/01 08:45:52;;;;;;;4.65;1.05;;;18.70;99.90;;;;;;5047606;28;20764;-33
2022/07/01 08:48:22;;;;;;;3.00;1.30;;;18.70;99.90;;;;;;5056826;28;20262;-33
2022/07/01 08:50:52;;;;;;;2.90;1.20;;;18.70;99.90;;;;;;5045401;28;20639;-33
2022/07/01 08:53:22;;;;;;;3.78;0.93;;;18.80;99.90;;;;;;5047694;28;20208;-32
2022/07/01 08:58:38;;;;;;;4.95;1.30;;;18.80;99.90;;;;;;5042050;28;20227;-32
2022/07/01 09:01:13;;;;;;;5.63;1.17;;;18.90;99.90;;;;;;5050579;28;20545;-32
2022/07/01 09:03:41;;;;;;;2.05;0.82;;;18.90;99.90;;;;;;5049829;28;20578;-32
2022/07/01 09:06:15;;;;;;;2.85;1.02;;;19.00;99.90;;;;;;5045580;28;20208;-33
2022/07/01 09:08:43;;;;;;;3.10;0.90;;;19.00;99.90;;;;;;5048735;28;20212;-32
2022/07/01 09:11:19;;;;;;;2.47;1.00;;;19.00;99.90;;;;;;5045255;28;20224;-32
2022/07/01 09:14:09;;;;;;;2.83;0.90;;;19.10;99.90;;;;;;5044635;28;20215;-33
2022/07/01 09:16:51;;;;;;;7.32;1.40;;;19.20;99.90;;;;;;5047780;28;20694;-32
2022/07/01 09:19:20;;;;;;;2.45;1.00;;;19.20;99.90;;;;;;5045966;28;20220;-32
2022/07/01 09:22:01;;;;;;;5.28;1.30;;;19.30;99.90;;;;;;5045259;28;20632;-32
2022/07/01 09:24:41;;;;;;;5.57;1.00;;;19.30;99.90;;;;;;5045036;28;20211;-33
2022/07/01 09:27:18;;;;;;;6.97;1.13;;;19.30;99.90;;;;;;5048875;28;20592;-32
2022/07/01 09:29:52;;;;;;;3.25;1.00;;;19.30;99.90;;;;;;5046040;28;20196;-32
2022/07/01 09:32:24;;;;;;;3.72;1.00;;;19.40;99.90;;;;;;5044443;28;21410;-32
2022/07/01 09:34:55;;;;;;;4.38;1.30;;;19.30;99.90;;;;;;5044109;28;20581;-32
2022/07/01 09:37:25;;;;;;;3.17;1.20;;;19.30;99.90;;;;;;5045784;28;20228;-33
2022/07/01 09:39:55;;;;;;;3.42;1.25;;;19.40;99.90;;;;;;5054354;28;20213;-33
2022/07/01 09:42:24;;;;;;;5.20;1.30;;;19.40;99.90;;;;;;5062962;28;20205;-33
2022/07/01 09:45:10;;;;;;;5.45;1.80;;;19.50;99.90;;;;;;5059851;28;20277;-34
2022/07/01 09:47:44;;;;;;;5.05;1.85;;;19.60;99.90;;;;;;5051422;28;20659;-35
2022/07/01 09:50:11;;;;;;;4.75;1.75;;;19.60;99.90;;;;;;5041706;28;20740;-34
2022/07/01 09:52:38;;;;;;;6.15;2.00;;;19.60;99.90;;;;;;5045549;28;20582;-35
2022/07/01 09:55:07;;;;;;;4.63;1.90;;;19.70;99.90;;;;;;5046605;28;20780;-35
2022/07/01 09:57:37;;;;;;;4.40;1.48;;;19.70;99.90;;;;;;5042569;28;20200;-35
2022/07/01 10:00:06;;;;;;;2.33;1.35;;;19.80;99.90;;;;;;5050383;28;20246;-35
2022/07/01 10:02:34;;;;;;;3.35;1.80;;;19.80;99.90;;;;;;5026993;28;20773;-35
2022/07/01 10:05:07;;;;;;;3.47;1.83;;;19.90;99.90;;;;;;5043652;28;20250;-35
2022/07/01 10:08:05;;;;;;;4.45;2.38;;;19.90;99.90;;;;;;5043672;28;20291;-35
2022/07/01 10:10:47;;;;;;;5.72;2.40;;;19.90;99.90;;;;;;5046077;28;20644;-35
2022/07/01 10:13:21;;;;;;;4.88;2.10;;;19.90;99.90;;;;;;5043659;28;20794;-35
2022/07/01 10:15:48;;;;;;;5.25;2.30;;;19.90;99.90;;;;;;5045271;28;20215;-35
2022/07/01 10:18:24;;;;;;;4.22;2.28;;;20.00;99.90;;;;;;5045473;28;20203;-35
2022/07/01 10:20:52;;;;;;;4.38;2.33;;;20.00;99.90;;;;;;5042069;28;20208;-35
2022/07/01 10:23:22;;;;;;;3.95;2.15;;;20.00;99.90;;;;;;5046096;28;20220;-35
2022/07/01 10:25:56;;;;;;;4.07;2.20;;;20.00;99.90;;;;;;5041195;28;20201;-35
2022/07/01 10:28:28;;;;;;;3.53;1.98;;;20.10;99.90;;;;;;5036029;28;20197;-35
2022/07/01 10:31:05;;;;;;;5.28;1.88;;;20.10;99.90;;;;;;5040057;28;20220;-35
2022/07/01 10:33:45;;;;;;;4.18;1.98;;;20.10;99.90;;;;;;5041413;28;20750;-35
2022/07/01 10:36:17;;;;;;;5.88;2.35;;;20.20;99.90;;;;;;5043011;28;20295;-35
2022/07/01 10:39:03;;;;;;;3.67;2.10;;;20.20;99.90;;;;;;5046342;28;20228;-35
2022/07/01 10:41:32;;;;;;;2.70;1.70;;;20.20;99.90;;;;;;5044025;28;20215;-35
2022/07/01 10:44:07;;;;;;;2.85;1.42;;;20.30;99.90;;;;;;5043935;28;20256;-35
2022/07/01 10:46:46;;;;;;;1.67;1.40;;;20.40;99.90;;;;;;5041183;28;20302;-35
2022/07/01 10:49:19;;;;;;;4.22;1.92;;;20.50;99.90;;;;;;5046386;28;20216;-32
2022/07/01 10:51:54;;;;;;;7.63;2.10;;;20.50;99.90;;;;;;5044418;28;20841;-32
2022/07/01 10:54:34;;;;;;;6.15;2.15;;;20.60;99.90;;;;;;5046900;28;20759;-32
2022/07/01 10:57:17;;;;;;;7.40;1.83;;;20.70;99.90;;;;;;5043607;28;20200;-33
2022/07/01 10:59:53;;;;;;;3.55;1.70;;;20.80;99.90;;;;;;5043405;28;20691;-33
2022/07/01 11:02:22;;;;;;;5.68;1.90;;;20.80;99.90;;;;;;5044447;28;20228;-33
2022/07/01 11:04:51;;;;;;;4.53;1.98;;;20.70;99.90;;;;;;5029227;28;20235;-33
2022/07/01 11:07:20;;;;;;;2.67;1.70;;;20.70;99.90;;;;;;5032748;28;20197;-33
2022/07/01 11:09:47;;;;;;;3.22;1.73;;;20.70;99.90;;;;;;5041486;28;20283;-33
2022/07/01 11:12:19;;;;;;;8.95;2.15;;;20.70;99.90;;;;;;5049037;28;20239;-34
2022/07/01 11:14:47;;;;;;;5.40;1.67;;;20.70;99.90;;;;;;5040845;28;20317;-34
2022/07/01 11:17:14;;;;;;;3.55;1.60;;;20.70;99.90;;;;;;5027599;28;20251;-33
2022/07/01 11:19:59;;;;;;;6.70;1.98;;;20.70;99.90;;;;;;5041847;28;20260;-33
2022/07/01 11:22:30;;;;;;;5.55;1.92;;;20.70;99.90;;;;;;5044144;28;21412;-33
2022/07/01 11:25:05;;;;;;;5.10;2.33;;;20.70;99.90;;;;;;5040268;28;20400;-34
2022/07/01 11:27:34;;;;;;;6.47;1.80;;;20.80;99.90;;;;;;5048361;28;20193;-33
2022/07/01 11:30:10;;;;;;;3.58;1.52;;;20.80;99.90;;;;;;5040368;28;20262;-33
2022/07/01 11:32:41;;;;;;;3.28;1.98;;;20.80;99.90;;;;;;5057774;28;20287;-33
2022/07/01 11:41:21;;;;;;;6.10;1.88;;;20.80;99.90;;;;;;5045874;28;20746;-33
2022/07/01 11:43:51;;;;;;;6.50;2.33;;;20.80;99.90;;;;;;5035861;28;20760;-33
2022/07/01 11:46:19;;;;;;;4.28;2.13;;;20.80;99.90;;;;;;5048765;28;20204;-33
2022/07/01 11:48:55;;;;;;;7.68;2.28;;;20.80;99.90;;;;;;5031130;28;20548;-33
2022/07/01 11:51:29;;;;;;;5.13;2.05;;;20.90;99.90;;;;;;5060527;28;20247;-33
2022/07/01 11:53:56;;;;;;;4.50;1.70;;;20.90;99.90;;;;;;5046098;28;20215;-33
2022/07/01 11:56:33;;;;;;;3.25;1.65;;;20.90;99.90;;;;;;5030085;28;20691;-33
2022/07/01 11:59:03;;;;;;;2.33;1.58;;;21.00;99.90;;;;;;5047399;28;20573;-34
2022/07/01 12:01:35;;;;;;;4.07;1.60;;;20.90;99.90;;;;;;5047197;28;20228;-34
2022/07/01 12:04:05;;;;;;;3.03;1.27;;;20.90;99.90;;;;;;5039109;28;20223;-33
2022/07/01 12:06:34;;;;;;;1.58;1.10;;;21.00;99.90;;;;;;5044550;28;20234;-34
2022/07/01 12:09:02;;;;;;;2.50;1.10;;;20.90;99.90;;;;;;5046648;28;20195;-34
2022/07/01 12:11:30;;;;;;;4.07;1.05;;;20.90;99.90;;;;;;5025784;28;20746;-37
2022/07/01 12:14:09;;;;;;;4.38;1.20;;;21.00;99.90;;;;;;5047432;28;20220;-33
2022/07/01 12:16:41;;;;;;;5.80;1.60;;;20.90;99.90;;;;;;5029664;28;20582;-33
2022/07/01 12:19:12;;;;;;;3.00;1.20;;;20.90;99.90;;;;;;5055279;28;20208;-33
2022/07/01 12:21:51;;;;;;;1.48;0.88;;;20.90;99.90;;;;;;5045208;28;20547;-34
2022/07/01 12:24:21;;;;;;;4.53;1.50;;;20.90;99.90;;;;;;5048980;28;20350;-33
2022/07/01 12:27:12;;;;;;;1.83;1.15;;;20.90;99.90;;;;;;5046205;28;20204;-35
2022/07/01 12:29:45;;;;;;;2.42;1.48;;;20.90;99.90;;;;;;5043541;28;20283;-36
2022/07/01 12:32:23;;;;;;;2.72;1.58;;;20.90;99.90;;;;;;5049779;28;20209;-35
2022/07/01 12:35:03;;;;;;;3.13;1.52;;;20.90;99.90;;;;;;5045689;28;20290;-36
2022/07/01 12:37:35;;;;;;;4.03;1.65;;;20.90;99.90;;;;;;5044865;28;20232;-36
2022/07/01 12:40:04;;;;;;;9.05;3.00;;;20.90;99.90;;;;;;5045527;28;20239;-35
2022/07/01 12:42:42;;;;;;;9.63;2.40;;;21.00;99.90;;;;;;5041581;28;20708;-36
2022/07/01 12:45:12;;;;;;;2.22;0.98;;;21.00;99.90;;;;;;5046846;28;20310;-36
2022/07/01 12:47:44;;;;;;;6.05;1.63;;;21.00;99.70;;;;;;5044763;28;20209;-35
2022/07/01 12:50:23;;;;;;;7.05;1.40;;;21.10;99.90;;;;;;5047897;28;20758;-35
2022/07/01 12:53:12;;;;;;;2.08;1.08;;;21.10;99.90;;;;;;5046646;28;20204;-38
2022/07/01 12:55:48;;;;;;;5.85;1.85;;;21.20;99.90;;;;;;5044856;28;20736;-35
2022/07/01 12:58:24;;;;;;;4.18;1.40;;;21.20;99.90;;;;;;5059553;28;20208;-35
2022/07/01 13:00:57;;;;;;;1.52;0.80;;;21.20;99.70;;;;;;5046968;28;20762;-37
2022/07/01 13:03:26;;;;;;;4.82;1.15;;;21.30;99.90;;;;;;5042427;28;20246;-36
2022/07/01 13:05:56;;;;;;;1.63;0.90;;;21.30;99.80;;;;;;5045111;28;20299;-35
2022/07/01 13:08:23;;;;;;;1.60;0.60;;;21.40;99.90;;;;;;5048248;28;20208;-35
2022/07/01 13:10:53;;;;;;;1.67;0.70;;;21.40;99.50;;;;;;5047289;28;20196;-35
2022/07/01 13:13:23;;;;;;;2.63;0.80;;;21.50;99.20;;;;;;5038791;28;20243;-35
2022/07/01 13:15:55;;;;;;;8.18;1.73;;;21.50;99.70;;;;;;5046341;28;20208;-35
2022/07/01 13:18:25;;;;;;;4.72;1.20;;;21.50;99.80;;;;;;5045330;28;20203;-35
2022/07/01 13:20:54;;;;;;;2.05;0.80;;;21.50;99.30;;;;;;5031782;28;20208;-35
2022/07/01 13:23:21;;;;;;;2.05;0.77;;;21.60;99.70;;;;;;5039034;28;20223;-35
2022/07/01 13:25:49;;;;;;;2.22;1.00;;;21.60;99.30;;;;;;5044292;28;20241;-35